createdAt,value
2023-01-25T00:00:00.777Z,1038.8
2023-01-25T00:05:00.839Z,1038.7
2023-01-25T00:10:00.838Z,1038.6
2023-01-25T00:15:00.735Z,1038.6
2023-01-25T00:20:00.621Z,1038.6
2023-01-25T00:25:00.351Z,1038.4
2023-01-25T00:30:00.830Z,1038.5
2023-01-25T00:35:00.506Z,1038.4
2023-01-25T00:40:00.338Z,1038.4
2023-01-25T00:45:00.592Z,1038.4
2023-01-25T00:50:00.454Z,1038.3
2023-01-25T00:55:00.862Z,1038.3
2023-01-25T01:00:00.372Z,1038.3
2023-01-25T01:05:00.597Z,1038.2
2023-01-25T01:10:00.570Z,1038.3
2023-01-25T01:15:00.442Z,1038.2
2023-01-25T01:20:00.534Z,1038.2
2023-01-25T01:25:00.561Z,1038.1
2023-01-25T01:30:00.491Z,1038.2
2023-01-25T01:35:00.407Z,1038.1
2023-01-25T01:40:00.317Z,1038.1
2023-01-25T01:45:00.166Z,1038.1
2023-01-25T01:50:00.507Z,1038.1
2023-01-25T01:55:02.354Z,1038.2
2023-01-25T02:00:00.384Z,1038.2
2023-01-25T02:05:00.406Z,1038.2
2023-01-25T02:10:00.393Z,1038.2
2023-01-25T02:15:00.591Z,1038.1
2023-01-25T02:20:00.340Z,1038
2023-01-25T02:25:03.206Z,1037.9
2023-01-25T02:30:00.375Z,1037.9
2023-01-25T02:35:00.787Z,1037.9
2023-01-25T02:40:00.335Z,1037.8
2023-01-25T02:45:00.292Z,1037.8
2023-01-25T02:50:00.514Z,1037.8
2023-01-25T02:55:00.466Z,1037.7
2023-01-25T03:00:00.591Z,1037.7
2023-01-25T03:05:00.197Z,1037.7
2023-01-25T03:10:00.260Z,1037.6
2023-01-25T03:15:00.139Z,1037.5
2023-01-25T03:20:00.396Z,1037.5
2023-01-25T03:25:00.380Z,1037.5
2023-01-25T03:30:00.438Z,1037.5
2023-01-25T03:35:00.296Z,1037.4
2023-01-25T03:40:00.372Z,1037.4
2023-01-25T03:45:00.840Z,1037.3
2023-01-25T03:50:00.260Z,1037.2
2023-01-25T03:55:00.084Z,1037.2
2023-01-25T04:00:00.479Z,1037.1
2023-01-25T04:05:00.094Z,1037.1
2023-01-25T04:10:00.021Z,1037.2
2023-01-25T04:15:00.359Z,1037.2
2023-01-25T04:20:01.060Z,1037.2
2023-01-25T04:25:00.366Z,1037.1
2023-01-25T04:30:00.365Z,1037.1
2023-01-25T04:35:00.275Z,1037.1
2023-01-25T04:40:00.072Z,1037
2023-01-25T04:45:00.352Z,1037
2023-01-25T04:50:00.461Z,1036.8
2023-01-25T04:55:00.140Z,1036.8
2023-01-25T05:00:00.291Z,1036.8
2023-01-25T05:05:00.031Z,1036.8
2023-01-25T05:10:00.574Z,1036.8
2023-01-25T05:15:00.393Z,1036.7
2023-01-25T05:20:00.160Z,1036.8
2023-01-25T05:25:00.021Z,1036.8
2023-01-25T05:30:00.082Z,1036.7
2023-01-25T05:35:01.044Z,1036.7
2023-01-25T05:40:00.283Z,1036.7
2023-01-25T05:45:00.222Z,1036.8
2023-01-25T05:50:00.116Z,1036.7
2023-01-25T05:55:00.587Z,1036.7
2023-01-25T05:59:59.999Z,1036.7
2023-01-25T06:05:00.124Z,1036.7
2023-01-25T06:10:00.265Z,1036.7
2023-01-25T06:15:00.300Z,1036.8
2023-01-25T06:20:00.288Z,1036.8
2023-01-25T06:25:00.119Z,1036.8
2023-01-25T06:30:00.375Z,1036.8
2023-01-25T06:35:00.162Z,1036.8
2023-01-25T06:40:00.415Z,1036.7
2023-01-25T06:44:59.952Z,1036.7
2023-01-25T06:50:00.134Z,1036.7
2023-01-25T06:55:00.172Z,1036.7
2023-01-25T07:00:00.339Z,1036.7
2023-01-25T07:05:00.032Z,1036.7
2023-01-25T07:10:00.103Z,1036.6
2023-01-25T07:15:00.179Z,1036.6
2023-01-25T07:20:00.288Z,1036.6
2023-01-25T07:25:00.142Z,1036.6
2023-01-25T07:30:00.004Z,1036.6
2023-01-25T07:35:00.363Z,1036.5
2023-01-25T07:39:59.881Z,1036.5
2023-01-25T07:44:59.954Z,1036.5
2023-01-25T07:50:00.269Z,1036.5
2023-01-25T07:54:59.893Z,1036.5
2023-01-25T07:59:59.963Z,1036.4
2023-01-25T08:04:59.950Z,1036.2
2023-01-25T08:09:59.897Z,1036.2
2023-01-25T08:15:00.141Z,1036.2
2023-01-25T08:19:59.901Z,1036.3
2023-01-25T08:25:00.169Z,1036.3
2023-01-25T08:30:00.335Z,1036.3
2023-01-25T08:35:00.127Z,1036.3
2023-01-25T08:39:59.856Z,1036.3
2023-01-25T08:45:00.001Z,1036.2
2023-01-25T08:50:00.193Z,1036.1
2023-01-25T08:54:59.944Z,1036.1
2023-01-25T08:59:59.857Z,1036
2023-01-25T09:04:59.971Z,1036
2023-01-25T09:10:00.140Z,1036
2023-01-25T09:15:00.162Z,1036
2023-01-25T09:19:59.988Z,1036
2023-01-25T09:25:00.026Z,1036
2023-01-25T09:30:16.623Z,1036
2023-01-25T09:34:59.908Z,1036
2023-01-25T09:40:00.186Z,1035.9
2023-01-25T09:45:00.173Z,1035.9
2023-01-25T09:50:00.173Z,1035.8
2023-01-25T09:55:00.673Z,1035.8
2023-01-25T10:00:02.303Z,1035.8
2023-01-25T10:04:59.741Z,1035.7
2023-01-25T10:10:00.024Z,1035.6
2023-01-25T10:15:00.173Z,1035.5
2023-01-25T10:19:59.998Z,1035.4
2023-01-25T10:25:00.118Z,1035.3
2023-01-25T10:30:19.771Z,1035.3
2023-01-25T10:35:00.113Z,1035.2
2023-01-25T10:40:00.243Z,1035.1
2023-01-25T10:45:00.209Z,1035.1
2023-01-25T10:49:59.842Z,1035
2023-01-25T10:54:59.886Z,1035
2023-01-25T10:59:59.990Z,1034.8
2023-01-25T11:05:14.595Z,1034.8
2023-01-25T11:09:59.878Z,1034.6
2023-01-25T11:15:00.035Z,1034.5
2023-01-25T11:19:59.840Z,1034.4
2023-01-25T11:24:59.814Z,1034.3
2023-01-25T11:30:00.108Z,1034.3
2023-01-25T11:34:59.699Z,1034.1
2023-01-25T11:40:05.787Z,1034
2023-01-25T11:44:59.871Z,1033.8
2023-01-25T11:49:59.842Z,1033.7
2023-01-25T11:55:05.975Z,1033.5
2023-01-25T11:59:59.778Z,1033.4
2023-01-25T12:05:06.398Z,1033.2
2023-01-25T12:09:59.883Z,1033.2
2023-01-25T12:14:59.914Z,1033.1
2023-01-25T12:19:59.705Z,1032.9
2023-01-25T12:24:59.750Z,1032.9
2023-01-25T12:29:59.848Z,1032.8
2023-01-25T12:34:59.703Z,1032.7
2023-01-25T12:40:01.256Z,1032.6
2023-01-25T12:44:59.905Z,1032.5
2023-01-25T12:50:08.596Z,1032.3
2023-01-25T12:55:00.410Z,1032.2
2023-01-25T13:00:04.368Z,1032.1
2023-01-25T13:05:02.626Z,1032.1
2023-01-25T13:10:02.023Z,1032
2023-01-25T13:14:59.684Z,1032
2023-01-25T13:20:00.147Z,1032.1
2023-01-25T13:24:59.833Z,1032.1
2023-01-25T13:29:59.707Z,1031.9
2023-01-25T13:34:59.877Z,1031.9
2023-01-25T13:40:05.988Z,1031.8
2023-01-25T13:44:59.739Z,1031.7
2023-01-25T13:50:01.800Z,1031.6
2023-01-25T13:54:59.950Z,1031.6
2023-01-25T14:00:09.809Z,1031.6
2023-01-25T14:05:00.614Z,1031.5
2023-01-25T14:10:01.060Z,1031.4
2023-01-25T14:14:59.532Z,1031.3
2023-01-25T14:19:59.748Z,1031.3
2023-01-25T14:24:59.740Z,1031.3
2023-01-25T14:29:59.867Z,1031.3
2023-01-25T14:34:59.620Z,1031.4
2023-01-25T14:39:59.624Z,1031.3
2023-01-25T14:45:00.247Z,1031.3
2023-01-25T14:50:36.957Z,1031.5
2023-01-25T14:54:59.469Z,1031.4
2023-01-25T14:59:59.814Z,1031.3
2023-01-25T15:05:04.835Z,1031.3
2023-01-25T15:09:59.486Z,1031.2
2023-01-25T15:14:59.461Z,1031.3
2023-01-25T15:19:59.662Z,1031.2
2023-01-25T15:24:59.563Z,1031.1
2023-01-25T15:29:59.877Z,1031
2023-01-25T15:34:59.732Z,1031
2023-01-25T15:39:59.531Z,1031
2023-01-25T15:44:59.809Z,1030.9
2023-01-25T15:49:59.610Z,1031
2023-01-25T15:55:01.950Z,1031
2023-01-25T16:00:02.075Z,1031
2023-01-25T16:04:59.570Z,1030.8
2023-01-25T16:09:59.460Z,1030.9
2023-01-25T16:14:59.616Z,1030.9
2023-01-25T16:19:59.726Z,1030.9
2023-01-25T16:24:59.564Z,1030.8
2023-01-25T16:29:59.574Z,1030.7
2023-01-25T16:34:59.490Z,1030.5
2023-01-25T16:39:59.515Z,1030.5
2023-01-25T16:44:59.508Z,1030.4
2023-01-25T16:49:59.766Z,1030.2
2023-01-25T16:54:59.865Z,1030
2023-01-25T17:00:01.506Z,1030
2023-01-25T17:04:59.387Z,1029.8
2023-01-25T17:09:59.408Z,1029.7
2023-01-25T17:14:59.490Z,1029.6
2023-01-25T17:19:59.676Z,1029.5
2023-01-25T17:24:59.683Z,1029.3
2023-01-25T17:29:59.751Z,1029.1
2023-01-25T17:34:59.466Z,1028.9
2023-01-25T17:39:59.661Z,1028.9
2023-01-25T17:44:59.623Z,1028.8
2023-01-25T17:49:59.527Z,1028.8
2023-01-25T17:54:59.423Z,1029
2023-01-25T17:59:59.380Z,1028.9
2023-01-25T18:04:59.631Z,1028.8
2023-01-25T18:09:59.930Z,1028.7
2023-01-25T18:14:59.623Z,1028.6
2023-01-25T18:19:59.565Z,1028.6
2023-01-25T18:24:59.568Z,1028.5
2023-01-25T18:30:00.459Z,1028.3
2023-01-25T18:34:59.648Z,1028.4
2023-01-25T18:39:59.478Z,1028.3
2023-01-25T18:44:59.703Z,1028.3
2023-01-25T18:49:59.702Z,1028.3
2023-01-25T18:54:59.728Z,1028.2
2023-01-25T18:59:59.951Z,1028.1
2023-01-25T19:04:59.308Z,1028.1
2023-01-25T19:09:59.573Z,1028
2023-01-25T19:14:59.482Z,1027.9
2023-01-25T19:19:59.580Z,1027.8
2023-01-25T19:24:59.648Z,1028
2023-01-25T19:29:59.507Z,1027.8
2023-01-25T19:34:59.577Z,1027.8
2023-01-25T19:39:59.294Z,1027.7
2023-01-25T19:44:59.562Z,1027.8
2023-01-25T19:49:59.519Z,1027.7
2023-01-25T19:54:59.656Z,1027.5
2023-01-25T19:59:59.569Z,1027.5
2023-01-25T20:04:59.490Z,1027.5
2023-01-25T20:09:59.205Z,1027.5
2023-01-25T20:14:59.303Z,1027.5
2023-01-25T20:19:59.636Z,1027.4
2023-01-25T20:24:59.225Z,1027.4
2023-01-25T20:29:59.405Z,1027.4
2023-01-25T20:34:59.306Z,1027.4
2023-01-25T20:39:59.504Z,1027.4
2023-01-25T20:44:59.619Z,1027.3
2023-01-25T20:49:59.523Z,1027.4
2023-01-25T20:54:59.378Z,1027.4
2023-01-25T20:59:59.582Z,1027.3
2023-01-25T21:04:59.583Z,1027.3
2023-01-25T21:09:59.293Z,1027.3
2023-01-25T21:14:59.668Z,1027.2
2023-01-25T21:19:59.304Z,1027.2
2023-01-25T21:24:59.300Z,1027.1
2023-01-25T21:29:59.588Z,1027.1
2023-01-25T21:34:59.607Z,1027.1
2023-01-25T21:39:59.280Z,1027
2023-01-25T21:44:59.262Z,1027.1
2023-01-25T21:49:59.223Z,1027
2023-01-25T21:54:59.312Z,1027
2023-01-25T21:59:59.544Z,1027
2023-01-25T22:04:59.350Z,1027.1
2023-01-25T22:09:59.521Z,1027
2023-01-25T22:14:59.471Z,1027
2023-01-25T22:19:59.720Z,1027
2023-01-25T22:24:59.339Z,1026.9
2023-01-25T22:29:59.287Z,1026.8
2023-01-25T22:34:59.156Z,1026.8
2023-01-25T22:39:59.455Z,1026.7
2023-01-25T22:44:59.658Z,1026.7
2023-01-25T22:49:59.132Z,1026.6
2023-01-25T22:54:59.154Z,1026.5
2023-01-25T22:59:59.450Z,1026.4
2023-01-25T23:04:59.506Z,1026.4
2023-01-25T23:09:59.243Z,1026.3
2023-01-25T23:14:59.221Z,1026.3
2023-01-25T23:19:59.387Z,1026.2
2023-01-25T23:24:59.387Z,1026.2
2023-01-25T23:29:59.344Z,1026.2
2023-01-25T23:34:59.614Z,1026.2
2023-01-25T23:39:59.201Z,1026.1
2023-01-25T23:44:59.171Z,1026.1
2023-01-25T23:49:59.658Z,1026
2023-01-25T23:54:59.288Z,1026
2023-01-25T23:59:59.391Z,1026
